createdAt,value
2017-10-20T00:02:08.759Z,51.00
2017-10-20T00:04:35.269Z,48.97
2017-10-20T00:07:01.543Z,47.30
2017-10-20T00:09:27.809Z,50.07
2017-10-20T00:11:54.866Z,50.10
2017-10-20T00:14:21.149Z,50.97
2017-10-20T00:16:47.422Z,52.13
2017-10-20T00:19:13.713Z,49.10
2017-10-20T00:21:40.024Z,49.80
2017-10-20T00:24:06.318Z,48.03
2017-10-20T00:26:32.580Z,50.50
2017-10-20T00:28:58.863Z,49.53
2017-10-20T00:31:25.961Z,49.13
2017-10-20T00:33:52.241Z,49.50
2017-10-20T00:36:19.282Z,52.60
2017-10-20T00:38:46.354Z,48.93
2017-10-20T00:41:12.666Z,50.60
2017-10-20T00:43:39.692Z,49.10
2017-10-20T00:46:06.736Z,49.37
2017-10-20T00:48:33.065Z,51.60
2017-10-20T00:50:59.366Z,50.40
2017-10-20T00:53:25.736Z,49.27
2017-10-20T00:55:52.794Z,48.80
2017-10-20T00:58:19.845Z,48.97
2017-10-20T01:00:46.918Z,50.37
2017-10-20T01:03:13.225Z,50.40
2017-10-20T01:05:39.473Z,48.40
2017-10-20T01:08:05.798Z,48.77
2017-10-20T01:10:32.126Z,47.37
2017-10-20T01:12:58.434Z,50.07
2017-10-20T01:15:25.493Z,48.27
2017-10-20T01:17:51.825Z,45.43
2017-10-20T01:20:18.164Z,49.23
2017-10-20T01:22:44.495Z,51.70
2017-10-20T01:25:10.817Z,49.00
2017-10-20T01:27:37.155Z,46.73
2017-10-20T01:30:03.462Z,45.90
2017-10-20T01:32:30.534Z,48.87
2017-10-20T01:34:57.072Z,50.77
2017-10-20T01:37:23.373Z,49.20
2017-10-20T01:39:50.442Z,50.60
2017-10-20T01:42:16.768Z,49.77
2017-10-20T01:44:43.078Z,52.53
2017-10-20T01:47:10.141Z,50.70
2017-10-20T01:49:36.461Z,50.40
2017-10-20T01:52:03.512Z,51.60
2017-10-20T01:54:30.560Z,50.10
2017-10-20T01:56:57.833Z,52.17
2017-10-20T01:59:24.158Z,47.67
2017-10-20T02:01:50.474Z,51.40
2017-10-20T02:04:17.511Z,51.90
2017-10-20T02:06:44.573Z,49.67
2017-10-20T02:09:11.117Z,51.63
2017-10-20T02:11:37.413Z,48.47
2017-10-20T02:14:03.688Z,49.20
2017-10-20T02:16:30.039Z,49.40
2017-10-20T02:18:56.349Z,49.93
2017-10-20T02:21:22.629Z,49.10
2017-10-20T02:23:49.110Z,46.33
2017-10-20T02:26:15.418Z,50.13
2017-10-20T02:28:41.713Z,47.60
2017-10-20T02:31:08.070Z,47.50
2017-10-20T02:33:35.091Z,49.47
2017-10-20T02:36:01.395Z,48.53
2017-10-20T02:38:27.714Z,46.70
2017-10-20T02:40:54.017Z,48.27
2017-10-20T02:43:20.289Z,51.00
2017-10-20T02:45:46.794Z,48.23
2017-10-20T02:48:13.093Z,44.27
2017-10-20T02:50:40.152Z,47.77
2017-10-20T02:53:07.258Z,46.73
2017-10-20T02:55:33.558Z,50.93
2017-10-20T02:57:59.854Z,49.60
2017-10-20T03:00:26.501Z,49.83
2017-10-20T03:02:52.793Z,50.87
2017-10-20T03:05:19.111Z,49.70
2017-10-20T03:07:45.476Z,49.53
2017-10-20T03:10:12.493Z,52.20
2017-10-20T03:12:38.832Z,49.17
2017-10-20T03:15:05.213Z,49.47
2017-10-20T03:17:31.473Z,48.53
2017-10-20T03:19:57.744Z,49.60
2017-10-20T03:22:24.779Z,51.20
2017-10-20T03:24:51.075Z,61.53
2017-10-20T03:27:17.367Z,98.10
2017-10-20T03:29:43.704Z,95.63
2017-10-20T03:32:11.051Z,80.03
2017-10-20T03:34:37.356Z,78.03
2017-10-20T03:37:04.389Z,52.33
2017-10-20T03:39:30.668Z,54.10
2017-10-20T03:41:57.297Z,54.17
2017-10-20T03:44:23.546Z,48.07
2017-10-20T03:46:49.830Z,51.87
2017-10-20T03:49:16.884Z,53.17
2017-10-20T03:51:43.928Z,48.43
2017-10-20T03:54:10.288Z,50.77
2017-10-20T03:56:36.587Z,47.00
2017-10-20T03:59:03.633Z,50.33
2017-10-20T04:01:30.691Z,49.10
2017-10-20T04:03:57.762Z,49.07
2017-10-20T04:06:24.069Z,47.30
2017-10-20T04:08:50.363Z,52.80
2017-10-20T04:11:16.945Z,49.93
2017-10-20T04:13:43.350Z,54.90
2017-10-20T04:16:10.421Z,45.40
2017-10-20T04:18:36.733Z,49.10
2017-10-20T04:21:04.017Z,48.67
2017-10-20T04:23:30.336Z,46.30
2017-10-20T04:25:56.604Z,50.00
2017-10-20T04:28:22.873Z,46.80
2017-10-20T04:30:49.900Z,45.37
2017-10-20T04:33:16.158Z,47.27
2017-10-20T04:35:43.178Z,47.17
2017-10-20T04:38:09.458Z,45.60
2017-10-20T04:40:35.745Z,44.90
2017-10-20T04:43:02.025Z,47.30
2017-10-20T04:45:28.344Z,42.90
2017-10-20T04:47:54.754Z,42.07
2017-10-20T04:50:21.757Z,43.73
2017-10-20T04:52:48.034Z,45.43
2017-10-20T04:55:15.165Z,45.53
2017-10-20T04:57:42.207Z,44.30
2017-10-20T05:00:09.225Z,43.97
2017-10-20T05:02:35.696Z,45.00
2017-10-20T05:05:02.727Z,42.27
2017-10-20T05:07:28.990Z,45.13
2017-10-20T05:09:55.282Z,44.17
2017-10-20T05:12:21.571Z,45.10
2017-10-20T05:14:47.864Z,42.10
2017-10-20T05:17:15.182Z,42.57
2017-10-20T05:19:41.449Z,44.90
2017-10-20T05:22:08.464Z,43.17
2017-10-20T05:24:34.781Z,42.53
2017-10-20T05:27:01.078Z,43.07
2017-10-20T05:29:27.351Z,44.40
2017-10-20T05:31:53.626Z,44.50
2017-10-20T05:34:19.896Z,43.17
2017-10-20T05:36:46.196Z,41.70
2017-10-20T05:39:12.739Z,42.67
2017-10-20T05:41:39.049Z,43.07
2017-10-20T05:44:05.333Z,44.90
2017-10-20T05:46:31.608Z,42.30
2017-10-20T05:48:58.133Z,44.13
2017-10-20T05:51:25.261Z,43.57
2017-10-20T05:53:51.565Z,41.17
2017-10-20T05:56:18.687Z,42.47
2017-10-20T05:58:45.023Z,41.70
2017-10-20T06:01:11.308Z,42.13
2017-10-20T06:03:38.313Z,39.97
2017-10-20T06:06:04.586Z,41.80
2017-10-20T06:08:31.608Z,41.53
2017-10-20T06:10:57.902Z,42.57
2017-10-20T06:13:24.174Z,40.20
2017-10-20T06:15:50.434Z,39.80
2017-10-20T06:18:17.457Z,39.10
2017-10-20T06:20:44.474Z,38.07
2017-10-20T06:23:10.751Z,39.47
2017-10-20T06:25:37.840Z,40.50
2017-10-20T06:28:04.114Z,37.53
2017-10-20T06:30:31.121Z,38.80
2017-10-20T06:32:57.420Z,37.40
2017-10-20T06:35:23.715Z,38.00
2017-10-20T06:37:50.017Z,40.00
2017-10-20T06:40:16.360Z,40.57
2017-10-20T06:42:42.721Z,37.13
2017-10-20T06:45:09.783Z,36.80
2017-10-20T06:47:36.126Z,34.90
2017-10-20T06:50:02.473Z,35.40
2017-10-20T06:52:28.750Z,36.07
2017-10-20T06:54:55.767Z,34.53
2017-10-20T06:57:22.135Z,36.00
2017-10-20T06:59:50.541Z,36.43
2017-10-20T07:02:16.906Z,35.00
2017-10-20T07:04:43.209Z,35.47
2017-10-20T07:07:09.512Z,35.27
2017-10-20T07:09:36.614Z,34.43
2017-10-20T07:12:02.926Z,33.70
2017-10-20T07:14:29.252Z,33.77
2017-10-20T07:16:55.588Z,33.70
2017-10-20T07:19:24.837Z,33.47
2017-10-20T07:21:51.963Z,34.43
2017-10-20T07:24:18.320Z,30.73
2017-10-20T07:26:45.460Z,34.20
2017-10-20T07:29:11.743Z,33.40
2017-10-20T07:31:38.049Z,33.30
2017-10-20T07:34:05.111Z,30.97
2017-10-20T07:36:31.425Z,32.53
2017-10-20T07:38:57.734Z,31.50
2017-10-20T07:41:24.770Z,30.00
2017-10-20T07:43:51.809Z,29.80
2017-10-20T07:46:18.098Z,28.60
2017-10-20T07:48:44.737Z,30.10
2017-10-20T07:51:11.017Z,29.57
2017-10-20T07:53:38.069Z,29.00
2017-10-20T07:56:05.101Z,30.00
2017-10-20T07:58:31.385Z,30.53
2017-10-20T08:00:57.703Z,29.33
2017-10-20T08:03:24.093Z,28.00
2017-10-20T08:05:50.351Z,29.13
2017-10-20T08:08:17.394Z,27.33
2017-10-20T08:10:44.725Z,26.90
2017-10-20T08:13:10.995Z,28.67
2017-10-20T08:15:37.281Z,27.43
2017-10-20T08:18:03.606Z,26.03
2017-10-20T08:20:29.892Z,23.63
2017-10-20T08:22:56.165Z,27.30
2017-10-20T08:25:22.418Z,25.17
2017-10-20T08:27:49.477Z,24.27
2017-10-20T08:30:16.480Z,25.07
2017-10-20T08:32:42.759Z,25.17
2017-10-20T08:35:09.306Z,25.17
2017-10-20T08:37:35.583Z,24.33
2017-10-20T08:40:01.862Z,22.43
2017-10-20T08:42:28.705Z,24.40
2017-10-20T08:44:55.058Z,22.60
2017-10-20T08:47:21.384Z,21.63
2017-10-20T08:49:47.698Z,22.33
2017-10-20T08:52:14.017Z,21.73
2017-10-20T08:54:40.371Z,20.77
2017-10-20T08:57:06.653Z,20.20
2017-10-20T08:59:33.656Z,19.10
2017-10-20T09:01:59.991Z,20.87
2017-10-20T09:04:26.277Z,20.50
2017-10-20T09:06:53.289Z,20.00
2017-10-20T09:09:20.066Z,20.03
2017-10-20T09:11:46.349Z,19.73
2017-10-20T09:14:12.631Z,19.77
2017-10-20T09:16:39.275Z,18.60
2017-10-20T09:19:05.558Z,20.73
2017-10-20T09:21:31.834Z,20.20
2017-10-20T09:23:58.136Z,19.80
2017-10-20T09:26:25.179Z,18.50
2017-10-20T09:28:52.189Z,20.47
2017-10-20T09:31:18.725Z,20.90
2017-10-20T09:33:45.020Z,19.60
2017-10-20T09:36:11.314Z,20.80
2017-10-20T09:38:38.345Z,19.90
2017-10-20T09:41:04.625Z,22.23
2017-10-20T09:43:30.903Z,20.57
2017-10-20T09:45:57.169Z,21.47
2017-10-20T09:48:23.453Z,19.10
2017-10-20T09:50:49.861Z,20.80
2017-10-20T09:53:16.137Z,21.97
2017-10-20T09:55:43.147Z,22.10
2017-10-20T09:58:09.440Z,21.67
2017-10-20T10:00:35.717Z,20.37
2017-10-20T10:03:01.989Z,20.57
2017-10-20T10:05:28.325Z,20.23
2017-10-20T10:07:54.653Z,21.13
2017-10-20T10:10:21.015Z,21.90
2017-10-20T10:12:47.357Z,22.47
2017-10-20T10:15:13.654Z,22.83
2017-10-20T10:17:39.932Z,22.97
2017-10-20T10:20:06.229Z,22.40
2017-10-20T10:22:32.516Z,21.17
2017-10-20T10:24:59.545Z,23.23
2017-10-20T10:27:25.837Z,20.87
2017-10-20T10:29:52.142Z,20.80
2017-10-20T10:32:18.414Z,21.30
2017-10-20T10:34:44.930Z,23.70
2017-10-20T10:37:11.195Z,21.23
2017-10-20T10:39:37.466Z,21.43
2017-10-20T10:42:03.732Z,21.43
2017-10-20T10:44:30.026Z,22.93
2017-10-20T10:46:56.567Z,23.67
2017-10-20T10:49:22.842Z,22.80
2017-10-20T10:51:49.133Z,24.17
2017-10-20T10:54:15.466Z,25.73
2017-10-20T10:56:41.772Z,24.40
2017-10-20T10:59:08.081Z,24.53
2017-10-20T11:01:35.150Z,25.83
2017-10-20T11:04:01.416Z,26.83
2017-10-20T11:06:46.121Z,24.03
2017-10-20T11:09:17.221Z,22.50
2017-10-20T11:12:01.973Z,24.10
2017-10-20T11:14:28.291Z,25.73
2017-10-20T11:16:54.587Z,28.60
2017-10-20T11:19:21.626Z,29.93
2017-10-20T11:21:47.932Z,24.50
2017-10-20T11:24:14.239Z,25.60
2017-10-20T11:26:40.530Z,26.03
2017-10-20T11:29:07.594Z,28.23
2017-10-20T11:31:33.897Z,25.10
2017-10-20T11:34:00.917Z,24.80
2017-10-20T11:36:27.246Z,30.50
2017-10-20T11:38:53.749Z,35.40
2017-10-20T11:41:20.048Z,51.27
2017-10-20T11:43:47.083Z,41.60
2017-10-20T11:46:14.375Z,39.93
2017-10-20T11:48:40.656Z,36.03
2017-10-20T11:51:06.969Z,34.00
2017-10-20T11:53:33.323Z,33.17
2017-10-20T11:55:59.646Z,40.03
2017-10-20T11:58:25.933Z,42.03
2017-10-20T12:00:52.281Z,46.87
2017-10-20T12:03:18.588Z,47.63
2017-10-20T12:05:44.889Z,52.67
2017-10-20T12:08:11.950Z,41.70
2017-10-20T12:10:38.258Z,35.90
2017-10-20T12:13:05.302Z,34.47
2017-10-20T12:15:32.371Z,31.27
2017-10-20T12:17:58.644Z,23.80
2017-10-20T12:20:24.944Z,25.43
2017-10-20T12:22:51.258Z,25.00
2017-10-20T12:25:17.539Z,22.27
2017-10-20T12:27:43.832Z,23.77
2017-10-20T12:30:10.117Z,34.20
2017-10-20T12:32:36.398Z,30.87
2017-10-20T12:35:02.705Z,21.30
2017-10-20T12:37:31.009Z,22.93
2017-10-20T12:39:57.274Z,19.93
2017-10-20T12:42:23.561Z,20.20
2017-10-20T12:44:49.856Z,24.23
2017-10-20T12:47:17.344Z,21.60
2017-10-20T12:49:43.610Z,19.40
2017-10-20T12:52:09.890Z,39.83
2017-10-20T12:54:36.261Z,48.53
2017-10-20T12:57:02.570Z,52.50
2017-10-20T12:59:28.874Z,32.57
2017-10-20T13:01:55.181Z,32.97
2017-10-20T13:04:22.206Z,23.37
2017-10-20T13:06:48.516Z,21.93
2017-10-20T13:09:14.921Z,19.77
2017-10-20T13:11:41.212Z,21.20
2017-10-20T13:14:07.527Z,18.90
2017-10-20T13:16:34.125Z,16.37
2017-10-20T13:19:00.393Z,16.60
2017-10-20T13:21:26.689Z,16.27
2017-10-20T13:23:53.322Z,14.60
2017-10-20T13:26:19.621Z,14.43
2017-10-20T13:28:46.633Z,13.10
2017-10-20T13:31:12.914Z,14.50
2017-10-20T13:33:39.188Z,14.80
2017-10-20T13:36:05.493Z,15.00
2017-10-20T13:38:31.774Z,14.37
2017-10-20T13:40:59.070Z,15.17
2017-10-20T13:43:25.355Z,14.10
2017-10-20T13:45:51.638Z,14.60
2017-10-20T13:48:17.957Z,15.03
2017-10-20T13:50:44.269Z,25.47
2017-10-20T13:53:10.578Z,13.77
2017-10-20T13:55:37.614Z,16.00
2017-10-20T13:58:03.914Z,12.87
2017-10-20T14:00:30.345Z,12.67
2017-10-20T14:02:56.610Z,11.07
2017-10-20T14:05:22.885Z,14.20
2017-10-20T14:07:49.421Z,11.20
2017-10-20T14:10:15.711Z,13.20
2017-10-20T14:12:42.730Z,15.70
2017-10-20T14:15:09.050Z,14.33
2017-10-20T14:17:35.334Z,14.20
2017-10-20T14:20:02.495Z,15.80
2017-10-20T14:22:28.797Z,14.43
2017-10-20T14:24:55.809Z,19.10
2017-10-20T14:27:22.108Z,21.37
2017-10-20T14:29:48.438Z,32.50
2017-10-20T14:32:14.741Z,19.07
2017-10-20T14:34:41.757Z,22.77
2017-10-20T14:37:08.812Z,24.63
2017-10-20T14:39:35.113Z,22.37
2017-10-20T14:42:01.427Z,15.13
2017-10-20T14:44:27.697Z,16.47
2017-10-20T14:46:53.965Z,15.73
2017-10-20T14:49:20.578Z,16.33
2017-10-20T14:51:47.614Z,18.20
2017-10-20T14:54:13.906Z,22.70
2017-10-20T14:56:40.218Z,20.27
2017-10-20T14:59:06.501Z,15.03
2017-10-20T15:01:32.800Z,23.10
2017-10-20T15:03:59.094Z,17.60
2017-10-20T15:06:26.130Z,19.20
2017-10-20T15:08:53.161Z,15.50
2017-10-20T15:11:19.465Z,17.30
2017-10-20T15:13:45.725Z,17.90
2017-10-20T15:16:12.759Z,14.60
2017-10-20T15:18:39.055Z,16.60
2017-10-20T15:21:07.212Z,14.80
2017-10-20T15:23:33.615Z,14.37
2017-10-20T15:26:01.035Z,16.73
2017-10-20T15:28:32.006Z,15.33
2017-10-20T15:31:01.679Z,15.10
2017-10-20T15:33:32.689Z,13.70
2017-10-20T15:35:59.097Z,12.80
2017-10-20T15:38:32.547Z,13.70
2017-10-20T15:41:00.396Z,13.87
2017-10-20T15:43:40.675Z,13.30
2017-10-20T15:46:08.098Z,12.40
2017-10-20T15:48:34.478Z,12.60
2017-10-20T15:51:13.815Z,13.47
2017-10-20T15:53:41.234Z,12.83
2017-10-20T15:56:12.390Z,13.33
2017-10-20T15:58:38.890Z,12.33
2017-10-20T16:01:14.913Z,13.90
2017-10-20T16:03:43.826Z,12.60
2017-10-20T16:06:10.232Z,9.30
2017-10-20T16:08:37.635Z,14.30
2017-10-20T16:11:06.116Z,12.37
2017-10-20T16:13:35.336Z,12.50
2017-10-20T16:16:01.744Z,11.37
2017-10-20T16:18:28.114Z,13.17
2017-10-20T16:20:55.108Z,13.10
2017-10-20T16:23:21.591Z,12.93
2017-10-20T16:25:48.990Z,13.67
2017-10-20T16:28:18.180Z,14.17
2017-10-20T16:30:46.691Z,16.37
2017-10-20T16:35:53.014Z,25.13
2017-10-20T16:38:29.114Z,20.90
2017-10-20T16:40:55.795Z,15.70
2017-10-20T16:43:23.174Z,14.00
2017-10-20T16:45:50.264Z,17.27
2017-10-20T16:48:17.578Z,13.77
2017-10-20T16:50:47.536Z,16.07
2017-10-20T16:53:42.745Z,15.43
2017-10-20T16:56:10.115Z,15.83
2017-10-20T16:58:37.278Z,15.00
2017-10-20T17:01:18.480Z,16.20
2017-10-20T17:06:55.288Z,17.97
2017-10-20T17:09:29.546Z,21.37
2017-10-20T17:11:58.254Z,15.90
2017-10-20T17:14:25.301Z,15.70
2017-10-20T17:16:57.961Z,21.57
2017-10-20T17:19:25.437Z,16.27
2017-10-20T17:21:58.590Z,19.10
2017-10-20T17:24:29.191Z,17.03
2017-10-20T17:27:02.716Z,19.73
2017-10-20T17:29:53.974Z,18.23
2017-10-20T17:32:22.950Z,18.60
2017-10-20T17:35:03.558Z,24.10
2017-10-20T17:43:02.724Z,23.20
2017-10-20T17:59:33.463Z,25.30
2017-10-20T18:02:04.615Z,27.87
2017-10-20T18:04:32.124Z,21.03
2017-10-20T18:07:10.336Z,20.80
2017-10-20T18:09:44.123Z,19.40
2017-10-20T18:12:22.283Z,21.03
2017-10-20T18:14:57.408Z,23.57
2017-10-20T18:17:31.509Z,16.83
2017-10-20T18:22:47.618Z,12.30
2017-10-20T18:25:32.764Z,13.17
2017-10-20T18:28:11.192Z,13.30
2017-10-20T18:30:44.614Z,43.43
2017-10-20T18:33:19.307Z,36.23
2017-10-20T18:38:32.670Z,23.37
2017-10-20T18:41:03.775Z,13.07
2017-10-20T18:43:32.501Z,18.77
2017-10-20T18:46:08.978Z,11.90
2017-10-20T18:51:26.023Z,13.27
2017-10-20T18:53:55.068Z,11.03
2017-10-20T18:56:26.899Z,11.77
2017-10-20T18:58:54.994Z,12.37
2017-10-20T19:01:28.418Z,15.63
2017-10-20T19:04:04.926Z,15.80
2017-10-20T19:12:30.025Z,11.27
2017-10-20T19:15:16.252Z,12.93
2017-10-20T19:17:48.165Z,14.70
2017-10-20T19:20:19.529Z,12.57
2017-10-20T19:22:52.490Z,23.13
2017-10-20T19:28:12.866Z,9.10
2017-10-20T19:30:45.156Z,10.63
2017-10-20T19:33:17.736Z,16.70
2017-10-20T19:35:46.068Z,13.70
2017-10-20T19:38:14.195Z,9.50
2017-10-20T19:40:42.626Z,15.97
2017-10-20T19:43:09.346Z,11.10
2017-10-20T19:45:40.399Z,13.37
2017-10-20T19:48:06.811Z,12.47
2017-10-20T19:50:34.034Z,11.63
2017-10-20T19:53:00.434Z,12.10
2017-10-20T19:55:28.208Z,10.60
2017-10-20T19:57:57.674Z,10.87
2017-10-20T20:00:26.766Z,10.30
2017-10-20T20:02:54.163Z,10.90
2017-10-20T20:05:25.159Z,11.63
2017-10-20T20:07:56.050Z,13.53
2017-10-20T20:10:30.592Z,11.37
2017-10-20T20:13:02.352Z,11.13
2017-10-20T20:15:34.250Z,10.93
2017-10-20T20:18:07.071Z,12.00
2017-10-20T20:23:14.689Z,14.90
2017-10-20T20:25:50.145Z,15.50
2017-10-20T20:28:31.219Z,11.93
2017-10-20T20:31:02.957Z,7.50
2017-10-20T20:33:46.898Z,8.97
2017-10-20T20:36:23.283Z,11.30
2017-10-20T20:38:50.496Z,10.83
2017-10-20T20:41:17.629Z,11.00
2017-10-20T20:43:44.064Z,10.00
2017-10-20T20:46:17.989Z,10.87
2017-10-20T20:48:48.995Z,10.50
2017-10-20T20:51:17.186Z,5.20
2017-10-20T20:53:45.591Z,10.27
2017-10-20T20:56:12.073Z,8.50
2017-10-20T20:58:49.089Z,11.23
2017-10-20T21:01:21.175Z,10.87
2017-10-20T21:03:48.862Z,12.63
2017-10-20T21:06:17.409Z,11.40
2017-10-20T21:08:45.699Z,11.67
2017-10-20T21:11:15.132Z,11.20
2017-10-20T21:13:44.598Z,11.17
2017-10-20T21:16:14.363Z,12.87
2017-10-20T21:18:46.725Z,12.83
2017-10-20T21:21:13.337Z,11.70
2017-10-20T21:23:41.443Z,13.20
2017-10-20T21:26:10.752Z,13.23
2017-10-20T21:28:40.222Z,14.13
2017-10-20T21:31:08.519Z,15.57
2017-10-20T21:33:36.502Z,15.13
2017-10-20T21:36:03.965Z,17.00
2017-10-20T21:38:34.293Z,13.80
2017-10-20T21:41:02.719Z,13.93
2017-10-20T21:43:29.234Z,14.90
2017-10-20T21:45:55.795Z,12.97
2017-10-20T21:48:22.760Z,15.40
2017-10-20T21:50:50.975Z,15.80
2017-10-20T21:53:25.523Z,13.53
2017-10-20T21:55:52.094Z,15.83
2017-10-20T21:58:18.627Z,16.43
2017-10-20T22:00:45.900Z,13.43
2017-10-20T22:03:12.556Z,14.47
2017-10-20T22:08:15.264Z,15.40
2017-10-20T22:10:41.990Z,15.57
2017-10-20T22:13:08.610Z,16.33
2017-10-20T22:15:35.161Z,16.53
2017-10-20T22:18:05.784Z,16.50
2017-10-20T22:20:34.421Z,14.97
2017-10-20T22:23:30.432Z,15.80
2017-10-20T22:26:01.758Z,16.07
2017-10-20T22:28:32.920Z,14.73
2017-10-20T22:31:14.524Z,15.70
2017-10-20T22:33:48.075Z,15.77
2017-10-20T22:36:22.988Z,15.27
2017-10-20T22:38:56.606Z,11.50
2017-10-20T22:41:30.047Z,16.07
2017-10-20T22:44:01.848Z,15.97
2017-10-20T22:46:33.955Z,14.40
2017-10-20T22:49:12.717Z,15.40
2017-10-20T22:56:57.279Z,15.10
2017-10-20T22:59:31.791Z,14.87
2017-10-20T23:02:08.301Z,15.00
2017-10-20T23:04:36.545Z,14.60
2017-10-20T23:07:07.178Z,14.27
2017-10-20T23:09:55.063Z,14.30
2017-10-20T23:12:30.552Z,13.60
2017-10-20T23:15:03.875Z,13.13
2017-10-20T23:17:32.999Z,12.10
2017-10-20T23:20:04.055Z,11.87
2017-10-20T23:22:37.521Z,13.27
2017-10-20T23:25:04.174Z,11.23
2017-10-20T23:27:36.026Z,12.50
2017-10-20T23:30:09.657Z,12.93
2017-10-20T23:32:45.705Z,11.17
2017-10-20T23:35:16.682Z,11.93
2017-10-20T23:37:43.135Z,11.03
2017-10-20T23:40:21.460Z,11.17
2017-10-20T23:42:57.451Z,11.13
2017-10-20T23:45:23.887Z,10.50
2017-10-20T23:47:53.935Z,10.10
2017-10-20T23:50:21.376Z,11.17
2017-10-20T23:52:49.778Z,10.33
2017-10-20T23:55:22.496Z,9.63
2017-10-20T23:57:50.611Z,9.73
